createdAt,value
2018-04-10T00:01:14.824Z,82.80
2018-04-10T00:03:42.403Z,83.30
2018-04-10T00:06:10.003Z,83.40
2018-04-10T00:08:37.572Z,83.40
2018-04-10T00:11:05.110Z,83.50
2018-04-10T00:13:33.444Z,83.40
2018-04-10T00:16:01.001Z,83.30
2018-04-10T00:18:29.340Z,83.00
2018-04-10T00:20:56.897Z,83.00
2018-04-10T00:23:24.492Z,82.90
2018-04-10T00:25:52.028Z,82.80
2018-04-10T00:28:19.626Z,82.70
2018-04-10T00:30:47.164Z,82.60
2018-04-10T00:33:14.782Z,82.80
2018-04-10T00:35:43.104Z,83.40
2018-04-10T00:38:10.680Z,83.30
2018-04-10T00:40:38.235Z,83.30
2018-04-10T00:43:05.796Z,83.80
2018-04-10T00:45:33.379Z,84.60
2018-04-10T00:48:00.926Z,85.00
2018-04-10T00:50:28.506Z,85.10
2018-04-10T00:53:07.987Z,85.60
2018-04-10T00:55:35.616Z,85.90
2018-04-10T00:58:03.920Z,86.10
2018-04-10T01:00:31.500Z,86.00
2018-04-10T01:02:59.064Z,85.90
2018-04-10T01:05:26.631Z,86.40
2018-04-10T01:07:54.949Z,85.70
2018-04-10T01:10:23.324Z,85.60
2018-04-10T01:12:50.872Z,85.50
2018-04-10T01:15:18.480Z,85.20
2018-04-10T01:17:46.008Z,85.40
2018-04-10T01:20:14.352Z,85.40
2018-04-10T01:22:41.944Z,85.40
2018-04-10T01:25:10.251Z,85.60
2018-04-10T01:27:37.826Z,85.50
2018-04-10T01:30:05.401Z,85.60
2018-04-10T01:32:32.980Z,85.90
2018-04-10T01:35:00.547Z,86.30
2018-04-10T01:37:28.140Z,86.40
2018-04-10T01:39:56.471Z,86.70
2018-04-10T01:42:24.047Z,86.70
2018-04-10T01:44:51.593Z,86.20
2018-04-10T01:47:19.217Z,86.20
2018-04-10T01:49:46.776Z,86.30
2018-04-10T01:52:14.372Z,86.90
2018-04-10T01:54:41.912Z,86.80
2018-04-10T01:57:09.484Z,87.50
2018-04-10T01:59:37.034Z,86.50
2018-04-10T02:02:04.597Z,86.20
2018-04-10T02:04:32.135Z,85.90
2018-04-10T02:06:59.715Z,86.60
2018-04-10T02:09:27.263Z,86.20
2018-04-10T02:11:54.807Z,86.00
2018-04-10T02:14:22.365Z,85.80
2018-04-10T02:16:49.912Z,85.70
2018-04-10T02:19:18.235Z,85.50
2018-04-10T02:21:45.769Z,85.50
2018-04-10T02:24:13.340Z,85.70
2018-04-10T02:26:40.905Z,87.10
2018-04-10T02:29:08.480Z,88.00
2018-04-10T02:31:36.798Z,88.00
2018-04-10T02:34:05.140Z,87.90
2018-04-10T02:36:32.696Z,87.90
2018-04-10T02:39:01.055Z,87.80
2018-04-10T02:41:28.592Z,87.80
2018-04-10T02:43:56.902Z,88.30
2018-04-10T02:46:24.487Z,88.30
2018-04-10T02:48:52.026Z,88.30
2018-04-10T02:51:19.605Z,88.20
2018-04-10T02:53:47.179Z,88.10
2018-04-10T02:56:14.748Z,88.90
2018-04-10T02:58:43.144Z,88.50
2018-04-10T03:01:10.771Z,89.30
2018-04-10T03:03:38.412Z,88.90
2018-04-10T03:06:06.015Z,88.70
2018-04-10T03:08:34.324Z,87.80
2018-04-10T03:11:01.911Z,87.70
2018-04-10T03:13:30.233Z,86.40
2018-04-10T03:15:57.803Z,87.20
2018-04-10T03:18:26.099Z,86.20
2018-04-10T03:20:53.663Z,86.20
2018-04-10T03:23:21.208Z,85.80
2018-04-10T03:25:49.548Z,86.70
2018-04-10T03:28:17.091Z,86.60
2018-04-10T03:30:44.705Z,87.10
2018-04-10T03:33:12.278Z,87.40
2018-04-10T03:35:39.832Z,87.40
2018-04-10T03:38:07.421Z,87.10
2018-04-10T03:40:34.973Z,86.50
2018-04-10T03:43:02.537Z,86.10
2018-04-10T03:45:30.100Z,86.50
2018-04-10T03:47:57.677Z,86.80
2018-04-10T03:50:25.272Z,86.70
2018-04-10T03:52:53.625Z,86.40
2018-04-10T03:55:21.186Z,86.40
2018-04-10T03:57:48.752Z,87.10
2018-04-10T04:00:16.291Z,88.50
2018-04-10T04:02:43.888Z,89.20
2018-04-10T04:05:12.210Z,89.80
2018-04-10T04:07:39.856Z,89.70
2018-04-10T04:10:07.428Z,89.70
2018-04-10T04:12:34.996Z,89.50
2018-04-10T04:15:02.604Z,88.80
2018-04-10T04:17:34.048Z,88.30
2018-04-10T04:20:13.497Z,88.20
2018-04-10T04:22:41.040Z,87.50
2018-04-10T04:25:08.608Z,87.10
2018-04-10T04:27:36.147Z,86.70
2018-04-10T04:30:03.755Z,86.60
2018-04-10T04:32:32.060Z,86.90
2018-04-10T04:34:59.628Z,86.90
2018-04-10T04:37:27.170Z,87.00
2018-04-10T04:39:54.754Z,87.10
2018-04-10T04:42:22.329Z,87.00
2018-04-10T04:44:49.930Z,86.60
2018-04-10T04:47:17.492Z,86.20
2018-04-10T04:49:45.056Z,86.40
2018-04-10T04:52:12.633Z,86.40
2018-04-10T04:54:40.169Z,86.30
2018-04-10T04:57:08.535Z,86.60
2018-04-10T04:59:36.875Z,86.90
2018-04-10T05:02:05.149Z,86.80
2018-04-10T05:04:33.513Z,86.70
2018-04-10T05:07:01.092Z,86.70
2018-04-10T05:09:28.627Z,86.80
2018-04-10T05:11:56.226Z,86.80
2018-04-10T05:14:23.759Z,86.90
2018-04-10T05:16:51.316Z,86.70
2018-04-10T05:19:18.861Z,86.60
2018-04-10T05:21:46.415Z,86.90
2018-04-10T05:24:13.985Z,86.90
2018-04-10T05:26:41.539Z,87.40
2018-04-10T05:29:09.106Z,87.50
2018-04-10T05:31:36.644Z,87.40
2018-04-10T05:34:04.997Z,87.30
2018-04-10T05:36:32.560Z,87.30
2018-04-10T05:39:00.132Z,87.70
2018-04-10T05:41:28.435Z,88.60
2018-04-10T05:43:56.014Z,88.50
2018-04-10T05:46:23.567Z,88.20
2018-04-10T05:48:51.148Z,88.00
2018-04-10T05:51:18.737Z,87.70
2018-04-10T05:53:46.292Z,87.50
2018-04-10T05:56:13.838Z,87.60
2018-04-10T05:58:41.426Z,87.30
2018-04-10T06:01:09.756Z,87.10
2018-04-10T06:03:37.342Z,87.10
2018-04-10T06:06:04.893Z,87.40
2018-04-10T06:08:32.434Z,88.20
2018-04-10T06:11:00.006Z,88.40
2018-04-10T06:13:27.571Z,88.60
2018-04-10T06:15:55.139Z,88.40
2018-04-10T06:18:22.673Z,88.00
2018-04-10T06:20:50.311Z,87.70
2018-04-10T06:23:17.852Z,87.40
2018-04-10T06:25:46.207Z,87.20
2018-04-10T06:28:13.757Z,87.10
2018-04-10T06:30:41.334Z,87.00
2018-04-10T06:33:08.883Z,87.00
2018-04-10T06:35:36.446Z,87.00
2018-04-10T06:38:03.987Z,87.10
2018-04-10T06:40:31.563Z,86.80
2018-04-10T06:42:59.117Z,86.40
2018-04-10T06:45:26.824Z,86.60
2018-04-10T06:47:55.133Z,86.70
2018-04-10T06:50:22.728Z,86.60
2018-04-10T06:52:50.260Z,86.80
2018-04-10T06:55:17.857Z,86.80
2018-04-10T06:57:45.392Z,86.80
2018-04-10T07:00:12.945Z,86.50
2018-04-10T07:02:40.537Z,86.20
2018-04-10T07:05:08.072Z,86.50
2018-04-10T07:07:35.673Z,85.80
2018-04-10T07:10:03.996Z,85.00
2018-04-10T07:12:31.586Z,85.00
2018-04-10T07:14:59.132Z,84.80
2018-04-10T07:17:26.699Z,84.70
2018-04-10T07:19:54.259Z,84.40
2018-04-10T07:22:21.843Z,84.10
2018-04-10T07:24:50.159Z,84.60
2018-04-10T07:27:17.745Z,84.60
2018-04-10T07:29:45.288Z,85.50
2018-04-10T07:32:12.833Z,85.90
2018-04-10T07:34:40.409Z,85.10
2018-04-10T07:37:07.949Z,85.00
2018-04-10T07:39:35.546Z,84.90
2018-04-10T07:42:03.087Z,84.80
2018-04-10T07:44:30.673Z,84.40
2018-04-10T07:46:58.212Z,83.80
2018-04-10T07:49:25.781Z,83.70
2018-04-10T07:51:53.327Z,83.50
2018-04-10T07:54:20.927Z,83.50
2018-04-10T07:56:48.480Z,83.70
2018-04-10T07:59:16.092Z,83.60
2018-04-10T08:01:43.629Z,83.50
2018-04-10T08:04:11.996Z,83.70
2018-04-10T08:06:39.541Z,83.60
2018-04-10T08:09:07.092Z,83.10
2018-04-10T08:11:34.675Z,82.90
2018-04-10T08:14:02.231Z,82.00
2018-04-10T08:16:29.822Z,82.00
2018-04-10T08:18:57.367Z,82.50
2018-04-10T08:21:25.724Z,82.70
2018-04-10T08:23:53.292Z,82.60
2018-04-10T08:26:20.884Z,82.70
2018-04-10T08:28:48.420Z,82.70
2018-04-10T08:31:16.732Z,82.80
2018-04-10T08:33:44.328Z,82.80
2018-04-10T08:36:11.884Z,82.50
2018-04-10T08:38:39.468Z,82.90
2018-04-10T08:41:07.067Z,83.50
2018-04-10T08:43:34.643Z,84.00
2018-04-10T08:46:02.214Z,84.30
2018-04-10T08:48:29.779Z,84.30
2018-04-10T08:50:57.332Z,82.90
2018-04-10T08:53:24.971Z,83.60
2018-04-10T08:55:52.546Z,83.00
2018-04-10T08:58:20.111Z,84.10
2018-04-10T09:00:47.719Z,83.90
2018-04-10T09:03:16.071Z,82.70
2018-04-10T09:05:43.676Z,82.60
2018-04-10T09:08:11.297Z,82.10
2018-04-10T09:10:38.947Z,81.80
2018-04-10T09:13:06.555Z,81.30
2018-04-10T09:15:34.888Z,80.00
2018-04-10T09:18:02.465Z,80.00
2018-04-10T09:20:30.033Z,79.50
2018-04-10T09:22:57.568Z,79.30
2018-04-10T09:25:25.138Z,78.80
2018-04-10T09:27:53.582Z,78.70
2018-04-10T09:30:21.162Z,78.90
2018-04-10T09:32:48.712Z,78.70
2018-04-10T09:35:16.363Z,78.60
2018-04-10T09:37:43.940Z,78.50
2018-04-10T09:40:11.496Z,78.60
2018-04-10T09:42:39.100Z,79.00
2018-04-10T09:45:06.647Z,79.10
2018-04-10T09:47:34.228Z,79.20
2018-04-10T09:50:02.556Z,78.60
2018-04-10T09:52:30.149Z,78.60
2018-04-10T09:54:57.692Z,78.90
2018-04-10T09:57:25.288Z,79.40
2018-04-10T09:59:53.686Z,79.60
2018-04-10T10:02:21.265Z,79.30
2018-04-10T10:04:48.828Z,78.20
2018-04-10T10:07:16.397Z,78.80
2018-04-10T10:09:43.961Z,78.10
2018-04-10T10:12:11.584Z,78.10
2018-04-10T10:14:39.907Z,76.50
2018-04-10T10:17:07.472Z,76.40
2018-04-10T10:19:35.018Z,72.00
2018-04-10T10:22:02.605Z,71.30
2018-04-10T10:24:30.155Z,69.90
2018-04-10T10:26:57.716Z,68.40
2018-04-10T10:29:25.285Z,64.80
2018-04-10T10:31:52.835Z,65.00
2018-04-10T10:34:20.412Z,64.40
2018-04-10T10:36:47.974Z,63.40
2018-04-10T10:39:15.551Z,62.70
2018-04-10T10:41:43.848Z,61.80
2018-04-10T10:44:11.436Z,61.70
2018-04-10T10:46:38.972Z,59.50
2018-04-10T10:49:06.543Z,60.00
2018-04-10T10:51:34.105Z,62.30
2018-04-10T10:54:01.665Z,60.20
2018-04-10T10:56:29.233Z,60.10
2018-04-10T10:58:56.827Z,58.70
2018-04-10T11:01:24.396Z,59.60
2018-04-10T11:03:51.992Z,59.80
2018-04-10T11:06:19.533Z,59.40
2018-04-10T11:08:47.905Z,56.60
2018-04-10T11:11:16.226Z,55.70
2018-04-10T11:13:43.838Z,55.70
2018-04-10T11:16:12.153Z,55.80
2018-04-10T11:18:39.758Z,56.30
2018-04-10T11:21:07.322Z,56.90
2018-04-10T11:23:34.892Z,57.60
2018-04-10T11:26:02.469Z,57.10
2018-04-10T11:28:30.812Z,57.70
2018-04-10T11:30:58.409Z,57.10
2018-04-10T11:33:26.713Z,56.40
2018-04-10T11:35:54.280Z,56.40
2018-04-10T11:38:21.840Z,55.90
2018-04-10T11:40:49.406Z,55.30
2018-04-10T11:43:16.955Z,55.30
2018-04-10T11:45:44.530Z,55.50
2018-04-10T11:48:12.076Z,55.50
2018-04-10T11:50:39.612Z,55.30
2018-04-10T11:53:07.947Z,55.60
2018-04-10T11:55:35.492Z,55.60
2018-04-10T11:58:03.062Z,55.80
2018-04-10T12:00:30.602Z,55.90
2018-04-10T12:02:58.164Z,56.60
2018-04-10T12:05:25.728Z,57.20
2018-04-10T12:07:53.308Z,57.60
2018-04-10T12:10:20.866Z,57.50
2018-04-10T12:12:48.454Z,57.90
2018-04-10T12:15:16.761Z,57.30
2018-04-10T12:17:44.328Z,57.20
2018-04-10T12:20:11.870Z,57.20
2018-04-10T12:22:39.440Z,57.30
2018-04-10T12:25:07.013Z,57.50
2018-04-10T12:27:34.579Z,57.10
2018-04-10T12:30:02.121Z,57.30
2018-04-10T12:32:29.704Z,57.00
2018-04-10T12:34:57.240Z,57.30
2018-04-10T12:37:24.782Z,57.20
2018-04-10T12:39:53.138Z,57.40
2018-04-10T12:42:20.715Z,57.40
2018-04-10T12:44:49.080Z,57.10
2018-04-10T12:47:16.644Z,57.10
2018-04-10T12:49:44.232Z,58.20
2018-04-10T12:52:11.804Z,58.10
2018-04-10T12:54:39.376Z,57.90
2018-04-10T12:57:06.959Z,57.50
2018-04-10T12:59:34.524Z,57.80
2018-04-10T13:02:02.115Z,58.10
2018-04-10T13:04:29.701Z,58.60
2018-04-10T13:06:57.244Z,59.50
2018-04-10T13:09:25.610Z,58.80
2018-04-10T13:11:53.149Z,58.80
2018-04-10T13:14:20.736Z,58.40
2018-04-10T13:16:49.060Z,57.20
2018-04-10T13:19:16.656Z,57.20
2018-04-10T13:21:44.236Z,56.60
2018-04-10T13:24:12.539Z,57.10
2018-04-10T13:26:40.119Z,57.00
2018-04-10T13:29:07.667Z,56.90
2018-04-10T13:31:35.231Z,57.00
2018-04-10T13:34:02.777Z,57.20
2018-04-10T13:36:30.371Z,57.60
2018-04-10T13:38:57.926Z,58.30
2018-04-10T13:41:25.509Z,58.00
2018-04-10T13:43:53.053Z,57.90
2018-04-10T13:46:20.625Z,58.00
2018-04-10T13:48:48.159Z,58.00
2018-04-10T13:51:15.755Z,58.00
2018-04-10T13:53:43.288Z,58.70
2018-04-10T13:56:10.836Z,58.00
2018-04-10T13:58:38.469Z,58.00
2018-04-10T14:01:06.929Z,57.40
2018-04-10T14:03:35.311Z,56.80
2018-04-10T14:08:35.376Z,57.10
2018-04-10T14:11:02.909Z,57.20
2018-04-10T14:13:31.267Z,56.60
2018-04-10T14:15:58.804Z,56.60
2018-04-10T14:18:26.381Z,56.90
2018-04-10T14:20:53.920Z,56.80
2018-04-10T14:23:21.489Z,56.60
2018-04-10T14:25:49.028Z,56.50
2018-04-10T14:28:16.596Z,56.90
2018-04-10T14:30:44.246Z,57.10
2018-04-10T14:33:11.934Z,57.10
2018-04-10T14:35:39.527Z,57.40
2018-04-10T14:38:07.156Z,57.40
2018-04-10T14:40:34.731Z,57.40
2018-04-10T14:43:02.362Z,57.00
2018-04-10T14:45:30.766Z,57.40
2018-04-10T14:47:58.367Z,56.70
2018-04-10T14:50:25.959Z,56.40
2018-04-10T14:52:53.585Z,57.00
2018-04-10T14:55:21.975Z,56.10
2018-04-10T14:57:49.548Z,56.00
2018-04-10T15:00:17.160Z,56.20
2018-04-10T15:02:44.800Z,56.60
2018-04-10T15:05:12.443Z,56.90
2018-04-10T15:07:40.028Z,57.80
2018-04-10T15:10:07.640Z,58.00
2018-04-10T15:12:35.220Z,57.30
2018-04-10T15:15:02.889Z,58.00
2018-04-10T15:17:30.505Z,58.40
2018-04-10T15:19:58.864Z,58.10
2018-04-10T15:22:26.401Z,58.00
2018-04-10T15:24:53.976Z,59.60
2018-04-10T15:27:21.523Z,61.30
2018-04-10T15:29:49.093Z,61.00
2018-04-10T15:32:16.653Z,59.00
2018-04-10T15:34:44.195Z,60.70
2018-04-10T15:37:11.783Z,59.80
2018-04-10T15:39:39.325Z,60.20
2018-04-10T15:42:06.893Z,59.70
2018-04-10T15:44:34.426Z,58.90
2018-04-10T15:47:02.037Z,60.10
2018-04-10T15:49:29.559Z,59.70
2018-04-10T15:51:57.132Z,60.50
2018-04-10T15:54:24.668Z,61.80
2018-04-10T15:56:52.232Z,61.90
2018-04-10T15:59:19.767Z,62.40
2018-04-10T16:01:47.321Z,64.00
2018-04-10T16:04:14.904Z,63.30
2018-04-10T16:06:42.452Z,63.40
2018-04-10T16:09:10.036Z,64.40
2018-04-10T16:11:38.438Z,65.50
2018-04-10T16:14:06.081Z,66.00
2018-04-10T16:16:33.667Z,66.00
2018-04-10T16:19:01.257Z,66.10
2018-04-10T16:21:28.810Z,67.30
2018-04-10T16:23:57.156Z,68.50
2018-04-10T16:26:24.688Z,68.40
2018-04-10T16:28:52.259Z,69.30
2018-04-10T16:31:19.827Z,71.60
2018-04-10T16:33:47.366Z,68.60
2018-04-10T16:36:14.937Z,70.90
2018-04-10T16:38:42.483Z,71.90
2018-04-10T16:41:10.085Z,73.20
2018-04-10T16:43:37.631Z,73.70
2018-04-10T16:46:05.192Z,73.90
2018-04-10T16:48:32.770Z,74.60
2018-04-10T16:51:00.340Z,75.00
2018-04-10T16:53:28.660Z,76.30
2018-04-10T16:55:56.255Z,76.20
2018-04-10T16:58:23.788Z,75.70
2018-04-10T17:00:51.422Z,75.70
2018-04-10T17:03:19.011Z,74.90
2018-04-10T17:05:46.682Z,75.50
2018-04-10T17:08:14.324Z,75.30
2018-04-10T17:10:41.948Z,74.70
2018-04-10T17:13:10.333Z,74.20
2018-04-10T17:15:38.692Z,74.60
2018-04-10T17:18:06.398Z,74.60
2018-04-10T17:20:34.014Z,75.60
2018-04-10T17:23:01.610Z,75.50
2018-04-10T17:25:29.145Z,76.60
2018-04-10T17:27:57.484Z,79.70
2018-04-10T17:30:25.017Z,79.50
2018-04-10T17:32:52.597Z,79.50
2018-04-10T17:35:20.164Z,80.30
2018-04-10T17:37:47.739Z,80.70
2018-04-10T17:40:15.271Z,80.60
2018-04-10T17:42:42.840Z,80.60
2018-04-10T17:45:10.390Z,81.60
2018-04-10T17:47:37.977Z,82.50
2018-04-10T17:50:05.532Z,83.20
2018-04-10T17:52:33.070Z,83.10
2018-04-10T17:55:00.672Z,84.40
2018-04-10T17:57:28.213Z,85.60
2018-04-10T17:59:55.792Z,84.50
2018-04-10T18:02:23.349Z,84.40
2018-04-10T18:04:50.933Z,84.20
2018-04-10T18:07:19.231Z,83.60
2018-04-10T18:09:46.812Z,83.50
2018-04-10T18:12:14.376Z,83.30
2018-04-10T18:14:41.985Z,83.10
2018-04-10T18:17:10.287Z,84.80
2018-04-10T18:19:37.876Z,84.80
2018-04-10T18:22:05.458Z,84.80
2018-04-10T18:24:33.045Z,84.60
2018-04-10T18:27:01.402Z,84.40
2018-04-10T18:29:28.970Z,84.20
2018-04-10T18:31:56.507Z,85.30
2018-04-10T18:34:24.080Z,85.90
2018-04-10T18:36:51.624Z,86.20
2018-04-10T18:39:19.223Z,85.90
2018-04-10T18:41:47.520Z,86.30
2018-04-10T18:44:15.092Z,86.30
2018-04-10T18:46:42.627Z,86.50
2018-04-10T18:49:10.927Z,86.00
2018-04-10T18:51:38.526Z,85.90
2018-04-10T18:54:06.074Z,85.50
2018-04-10T18:56:33.673Z,88.00
2018-04-10T18:59:01.983Z,89.70
2018-04-10T19:01:29.539Z,89.70
2018-04-10T19:03:57.084Z,90.10
2018-04-10T19:06:25.430Z,90.00
2018-04-10T19:08:53.031Z,90.00
2018-04-10T19:11:20.598Z,89.20
2018-04-10T19:13:48.133Z,88.20
2018-04-10T19:16:16.455Z,87.60
2018-04-10T19:18:43.989Z,87.60
2018-04-10T19:21:11.561Z,88.40
2018-04-10T19:23:39.109Z,88.80
2018-04-10T19:26:06.687Z,89.30
2018-04-10T19:28:34.276Z,90.00
2018-04-10T19:31:01.861Z,90.20
2018-04-10T19:33:29.396Z,90.50
2018-04-10T19:35:56.955Z,90.60
2018-04-10T19:38:24.539Z,90.80
2018-04-10T19:40:52.080Z,90.80
2018-04-10T19:43:19.657Z,90.70
2018-04-10T19:45:47.183Z,90.30
2018-04-10T19:48:14.773Z,90.10
2018-04-10T19:50:42.315Z,89.70
2018-04-10T19:53:09.886Z,88.30
2018-04-10T19:55:37.435Z,87.80
2018-04-10T19:58:05.021Z,86.60
2018-04-10T20:00:33.339Z,87.10
2018-04-10T20:03:00.908Z,87.10
2018-04-10T20:05:28.436Z,86.70
2018-04-10T20:07:56.057Z,86.00
2018-04-10T20:10:23.587Z,86.10
2018-04-10T20:12:51.149Z,86.10
2018-04-10T20:15:18.713Z,86.10
2018-04-10T20:17:46.289Z,86.10
2018-04-10T20:20:13.865Z,85.80
2018-04-10T20:22:41.468Z,85.20
2018-04-10T20:25:09.009Z,85.00
2018-04-10T20:27:37.405Z,85.50
2018-04-10T20:30:04.990Z,85.40
2018-04-10T20:32:32.592Z,86.90
2018-04-10T20:35:00.144Z,86.10
2018-04-10T20:37:27.700Z,86.10
2018-04-10T20:39:55.251Z,86.10
2018-04-10T20:42:22.812Z,86.80
2018-04-10T20:44:50.414Z,87.30
2018-04-10T20:47:17.984Z,87.10
2018-04-10T20:49:45.544Z,86.90
2018-04-10T20:52:13.876Z,87.40
2018-04-10T20:54:41.425Z,87.30
2018-04-10T20:57:09.846Z,89.10
2018-04-10T20:59:38.164Z,90.10
2018-04-10T21:02:05.780Z,90.10
2018-04-10T21:04:33.341Z,90.30
2018-04-10T21:07:00.918Z,89.90
2018-04-10T21:09:28.449Z,89.00
2018-04-10T21:11:57.192Z,88.30
2018-04-10T21:14:24.820Z,87.80
2018-04-10T21:16:53.182Z,87.70
2018-04-10T21:19:20.788Z,87.60
2018-04-10T21:21:48.387Z,87.50
2018-04-10T21:24:15.989Z,87.40
2018-04-10T21:26:44.305Z,87.20
2018-04-10T21:29:11.866Z,87.10
2018-04-10T21:31:39.512Z,87.00
2018-04-10T21:34:07.113Z,86.90
2018-04-10T21:36:34.661Z,86.90
2018-04-10T21:39:02.239Z,87.10
2018-04-10T21:41:29.781Z,87.00
2018-04-10T21:43:57.352Z,87.30
2018-04-10T21:46:24.919Z,87.70
2018-04-10T21:48:52.505Z,87.70
2018-04-10T21:51:20.819Z,87.90
2018-04-10T21:53:48.383Z,87.80
2018-04-10T21:56:15.920Z,88.70
2018-04-10T21:58:43.481Z,88.00
2018-04-10T22:01:11.031Z,88.60
2018-04-10T22:03:39.353Z,89.70
2018-04-10T22:06:07.685Z,89.70
2018-04-10T22:08:36.016Z,89.10
2018-04-10T22:11:03.554Z,89.00
2018-04-10T22:13:31.110Z,88.70
2018-04-10T22:15:58.647Z,88.80
2018-04-10T22:18:26.249Z,89.60
2018-04-10T22:20:53.789Z,89.70
2018-04-10T22:23:21.366Z,89.30
2018-04-10T22:25:48.927Z,88.60
2018-04-10T22:28:17.256Z,87.90
2018-04-10T22:30:45.565Z,87.90
2018-04-10T22:33:13.109Z,87.90
2018-04-10T22:35:40.649Z,88.50
2018-04-10T22:38:08.213Z,89.10
2018-04-10T22:40:35.757Z,88.80
2018-04-10T22:43:03.339Z,88.50
2018-04-10T22:45:30.877Z,88.30
2018-04-10T22:47:58.429Z,88.30
2018-04-10T22:50:26.026Z,88.10
2018-04-10T22:52:53.601Z,88.00
2018-04-10T22:55:21.168Z,87.60
2018-04-10T22:57:48.731Z,87.60
2018-04-10T23:00:17.101Z,87.70
2018-04-10T23:02:44.643Z,87.90
2018-04-10T23:05:12.209Z,87.90
2018-04-10T23:07:39.801Z,87.70
2018-04-10T23:10:07.437Z,88.60
2018-04-10T23:12:34.988Z,89.10
2018-04-10T23:15:02.670Z,89.90
2018-04-10T23:17:30.192Z,90.40
2018-04-10T23:19:58.497Z,90.30
2018-04-10T23:22:26.139Z,90.20
2018-04-10T23:24:54.502Z,89.60
2018-04-10T23:27:22.852Z,89.70
2018-04-10T23:29:50.405Z,89.70
2018-04-10T23:32:17.989Z,88.50
2018-04-10T23:34:45.525Z,88.20
2018-04-10T23:37:13.116Z,87.80
2018-04-10T23:39:40.660Z,87.90
2018-04-10T23:42:08.251Z,87.60
2018-04-10T23:44:35.817Z,87.30
2018-04-10T23:47:04.151Z,87.30
2018-04-10T23:49:32.452Z,87.10
2018-04-10T23:52:00.025Z,87.10
2018-04-10T23:54:28.337Z,86.90
2018-04-10T23:56:55.918Z,86.90
2018-04-10T23:59:23.461Z,87.10
